createdAt,value
2022-09-23T00:00:35.141Z,13.20
2022-09-23T00:02:36.856Z,13.10
2022-09-23T00:04:38.599Z,13.10
2022-09-23T00:06:40.510Z,13.10
2022-09-23T00:08:42.934Z,13.10
2022-09-23T00:10:44.632Z,13.10
2022-09-23T00:12:46.337Z,13.10
2022-09-23T00:14:48.089Z,13.10
2022-09-23T00:16:53.763Z,13.00
2022-09-23T00:18:55.892Z,13.00
2022-09-23T00:20:57.520Z,13.00
2022-09-23T00:22:59.150Z,13.00
2022-09-23T00:25:00.798Z,13.00
2022-09-23T00:27:04.577Z,13.00
2022-09-23T00:29:06.201Z,13.00
2022-09-23T00:31:11.777Z,13.00
2022-09-23T00:33:13.722Z,13.00
2022-09-23T00:35:15.747Z,13.00
2022-09-23T00:37:20.056Z,13.00
2022-09-23T00:39:22.707Z,13.00
2022-09-23T00:41:25.021Z,13.00
2022-09-23T00:43:44.172Z,13.00
2022-09-23T00:45:50.025Z,13.00
2022-09-23T00:47:56.393Z,13.00
2022-09-23T00:50:38.032Z,12.90
2022-09-23T00:52:40.218Z,12.90
2022-09-23T00:54:42.637Z,12.90
2022-09-23T00:56:44.775Z,12.80
2022-09-23T00:58:48.501Z,12.80
2022-09-23T01:00:50.517Z,12.80
2022-09-23T01:02:52.487Z,12.70
2022-09-23T01:04:54.853Z,12.70
2022-09-23T01:06:59.141Z,12.70
2022-09-23T01:09:00.792Z,12.70
2022-09-23T01:11:14.627Z,12.60
2022-09-23T01:13:35.497Z,12.60
2022-09-23T01:15:49.946Z,12.60
2022-09-23T01:18:03.248Z,12.60
2022-09-23T01:20:30.669Z,12.50
2022-09-23T01:22:46.170Z,12.60
2022-09-23T01:25:05.083Z,12.60
2022-09-23T01:27:34.341Z,12.50
2022-09-23T01:30:08.588Z,12.60
2022-09-23T01:32:44.615Z,12.60
2022-09-23T01:35:28.321Z,12.60
2022-09-23T01:37:53.909Z,12.50
2022-09-23T01:40:21.551Z,12.50
2022-09-23T01:42:36.158Z,12.50
2022-09-23T01:44:48.482Z,12.50
2022-09-23T01:46:59.001Z,12.50
2022-09-23T01:49:29.974Z,12.50
2022-09-23T01:51:39.270Z,12.50
2022-09-23T01:53:49.684Z,12.40
2022-09-23T01:55:58.962Z,12.40
2022-09-23T01:58:15.648Z,12.40
2022-09-23T02:00:21.327Z,12.40
2022-09-23T02:03:08.410Z,12.40
2022-09-23T02:05:10.230Z,12.40
2022-09-23T02:07:41.193Z,12.30
2022-09-23T02:09:46.599Z,12.30
2022-09-23T02:11:54.415Z,12.30
2022-09-23T02:14:05.797Z,12.30
2022-09-23T02:16:18.248Z,12.30
2022-09-23T02:18:24.228Z,12.20
2022-09-23T02:20:33.342Z,12.30
2022-09-23T02:23:16.559Z,12.20
2022-09-23T02:25:19.729Z,12.20
2022-09-23T02:27:37.108Z,12.20
2022-09-23T02:29:55.282Z,12.20
2022-09-23T02:32:22.521Z,12.10
2022-09-23T02:35:02.457Z,12.10
2022-09-23T02:37:43.374Z,12.10
2022-09-23T02:40:22.587Z,12.10
2022-09-23T02:42:46.829Z,12.10
2022-09-23T02:44:48.703Z,12.00
2022-09-23T02:46:53.102Z,12.00
2022-09-23T02:49:16.624Z,12.00
2022-09-23T02:51:18.742Z,12.00
2022-09-23T02:53:23.149Z,11.90
2022-09-23T02:55:31.214Z,11.90
2022-09-23T02:57:33.035Z,11.90
2022-09-23T02:59:35.940Z,11.90
2022-09-23T03:02:04.439Z,11.90
2022-09-23T03:04:32.664Z,11.90
2022-09-23T03:06:59.076Z,11.80
2022-09-23T03:09:22.521Z,11.90
2022-09-23T03:11:24.635Z,11.80
2022-09-23T03:14:17.231Z,11.80
2022-09-23T03:16:32.452Z,11.80
2022-09-23T03:18:41.873Z,11.80
2022-09-23T03:21:02.098Z,11.70
2022-09-23T03:23:08.482Z,11.70
2022-09-23T03:25:18.019Z,11.70
2022-09-23T03:27:25.479Z,11.70
2022-09-23T03:29:28.767Z,11.60
2022-09-23T03:31:32.284Z,11.60
2022-09-23T03:33:36.637Z,11.60
2022-09-23T03:36:02.981Z,11.60
2022-09-23T03:38:15.661Z,11.60
2022-09-23T03:40:31.668Z,11.60
2022-09-23T03:42:34.640Z,11.60
2022-09-23T03:44:39.063Z,11.60
2022-09-23T03:46:43.973Z,11.60
2022-09-23T03:48:45.662Z,11.60
2022-09-23T03:50:48.790Z,11.60
2022-09-23T03:52:52.948Z,11.50
2022-09-23T03:54:54.783Z,11.50
2022-09-23T03:57:00.222Z,11.50
2022-09-23T03:59:01.883Z,11.50
2022-09-23T04:01:04.033Z,11.50
2022-09-23T04:03:11.771Z,11.50
2022-09-23T04:05:13.907Z,11.50
2022-09-23T04:07:15.812Z,11.50
2022-09-23T04:09:17.653Z,11.40
2022-09-23T04:11:19.278Z,11.40
2022-09-23T04:13:20.917Z,11.40
2022-09-23T04:15:25.053Z,11.40
2022-09-23T04:17:26.761Z,11.40
2022-09-23T04:19:28.544Z,11.30
2022-09-23T04:21:31.266Z,11.40
2022-09-23T04:23:32.936Z,11.30
2022-09-23T04:25:34.551Z,11.30
2022-09-23T04:27:37.934Z,11.30
2022-09-23T04:29:39.786Z,11.20
2022-09-23T04:31:41.503Z,11.20
2022-09-23T04:33:43.314Z,11.30
2022-09-23T04:35:49.430Z,11.20
2022-09-23T04:37:51.153Z,11.20
2022-09-23T04:39:52.801Z,11.20
2022-09-23T04:41:54.540Z,11.10
2022-09-23T04:43:57.395Z,11.20
2022-09-23T04:46:03.818Z,11.10
2022-09-23T04:48:05.538Z,11.10
2022-09-23T04:50:08.884Z,11.10
2022-09-23T04:52:10.702Z,11.10
2022-09-23T04:54:14.860Z,11.10
2022-09-23T04:56:19.514Z,11.00
2022-09-23T04:58:22.942Z,11.00
2022-09-23T05:00:24.633Z,11.00
2022-09-23T05:02:32.032Z,11.00
2022-09-23T05:04:33.757Z,10.90
2022-09-23T05:06:39.064Z,10.90
2022-09-23T05:08:42.510Z,10.90
2022-09-23T05:10:44.212Z,10.90
2022-09-23T05:12:46.017Z,10.80
2022-09-23T05:14:51.688Z,10.80
2022-09-23T05:16:53.380Z,10.80
2022-09-23T05:18:55.012Z,10.80
2022-09-23T05:20:57.068Z,10.70
2022-09-23T05:22:59.496Z,10.70
2022-09-23T05:25:02.599Z,10.70
2022-09-23T05:27:07.699Z,10.70
2022-09-23T05:29:12.160Z,10.70
2022-09-23T05:31:20.745Z,10.70
2022-09-23T05:33:23.413Z,10.70
2022-09-23T05:35:25.034Z,10.60
2022-09-23T05:37:27.910Z,10.60
2022-09-23T05:39:31.728Z,10.60
2022-09-23T05:41:33.895Z,10.60
2022-09-23T05:43:38.992Z,10.60
2022-09-23T05:45:40.625Z,10.70
2022-09-23T05:47:43.936Z,10.60
2022-09-23T05:49:59.008Z,10.60
2022-09-23T05:52:02.054Z,10.60
2022-09-23T05:54:05.083Z,10.60
2022-09-23T05:56:09.710Z,10.60
2022-09-23T05:58:12.637Z,10.60
2022-09-23T06:00:15.611Z,10.60
2022-09-23T06:02:17.317Z,10.50
2022-09-23T06:04:18.977Z,10.60
2022-09-23T06:06:31.294Z,10.60
2022-09-23T06:08:37.601Z,10.70
2022-09-23T06:10:42.078Z,10.60
2022-09-23T06:12:44.895Z,10.70
2022-09-23T06:14:46.585Z,10.70
2022-09-23T06:16:50.478Z,10.70
2022-09-23T06:18:54.626Z,10.70
2022-09-23T06:20:59.774Z,10.70
2022-09-23T06:23:09.419Z,10.80
2022-09-23T06:25:17.273Z,10.90
2022-09-23T06:27:18.926Z,10.90
2022-09-23T06:29:20.598Z,10.90
2022-09-23T06:31:25.003Z,11.00
2022-09-23T06:33:35.949Z,11.10
2022-09-23T06:35:38.974Z,11.10
2022-09-23T06:37:40.682Z,11.20
2022-09-23T06:39:42.412Z,11.20
2022-09-23T06:41:46.287Z,11.30
2022-09-23T06:43:48.048Z,11.40
2022-09-23T06:45:57.769Z,11.50
2022-09-23T06:47:59.677Z,11.50
2022-09-23T06:50:01.368Z,11.60
2022-09-23T06:52:06.122Z,11.60
2022-09-23T06:54:15.192Z,11.70
2022-09-23T06:56:21.889Z,11.70
2022-09-23T06:58:23.618Z,11.80
2022-09-23T07:00:26.133Z,11.80
2022-09-23T07:02:27.904Z,11.80
2022-09-23T07:04:29.712Z,11.90
2022-09-23T07:06:33.585Z,11.90
2022-09-23T07:08:35.473Z,11.90
2022-09-23T07:10:37.229Z,11.90
2022-09-23T07:12:39.053Z,12.00
2022-09-23T07:14:40.680Z,12.00
2022-09-23T07:16:42.307Z,12.10
2022-09-23T07:18:44.991Z,12.20
2022-09-23T07:20:46.647Z,12.20
2022-09-23T07:22:53.379Z,12.30
2022-09-23T07:24:57.846Z,12.30
2022-09-23T07:27:00.271Z,12.40
2022-09-23T07:29:05.007Z,12.50
2022-09-23T07:31:09.915Z,12.50
2022-09-23T07:33:27.960Z,12.60
2022-09-23T07:35:33.778Z,12.60
2022-09-23T07:37:35.984Z,12.70
2022-09-23T07:39:40.182Z,12.80
2022-09-23T07:41:46.252Z,12.90
2022-09-23T07:43:50.001Z,12.90
2022-09-23T07:45:51.988Z,13.00
2022-09-23T07:47:55.210Z,13.10
2022-09-23T07:49:59.325Z,13.20
2022-09-23T07:52:01.159Z,13.30
2022-09-23T07:54:03.253Z,13.40
2022-09-23T07:56:08.286Z,13.50
2022-09-23T07:58:12.313Z,13.60
2022-09-23T08:00:17.745Z,13.60
2022-09-23T08:02:19.997Z,13.80
2022-09-23T08:04:22.983Z,13.90
2022-09-23T08:06:24.856Z,13.90
2022-09-23T08:08:27.873Z,14.00
2022-09-23T08:10:30.953Z,14.10
2022-09-23T08:12:32.602Z,14.20
2022-09-23T08:14:34.307Z,14.30
2022-09-23T08:16:36.106Z,14.40
2022-09-23T08:18:39.425Z,14.50
2022-09-23T08:20:47.826Z,14.60
2022-09-23T08:22:53.424Z,14.70
2022-09-23T08:24:56.715Z,14.70
2022-09-23T08:27:01.175Z,14.80
2022-09-23T08:29:04.271Z,14.90
2022-09-23T08:31:06.247Z,15.00
2022-09-23T08:33:07.938Z,15.10
2022-09-23T08:35:10.393Z,15.10
2022-09-23T08:37:12.122Z,15.20
2022-09-23T08:39:15.462Z,15.30
2022-09-23T08:41:22.556Z,15.30
2022-09-23T08:43:29.157Z,15.50
2022-09-23T08:45:32.101Z,15.50
2022-09-23T08:47:51.640Z,15.50
2022-09-23T08:50:19.251Z,15.60
2022-09-23T08:52:43.355Z,15.80
2022-09-23T08:54:45.038Z,15.90
2022-09-23T08:56:51.224Z,15.90
2022-09-23T08:59:09.063Z,16.00
2022-09-23T09:01:18.431Z,16.20
2022-09-23T09:03:27.347Z,16.30
2022-09-23T09:05:32.789Z,16.40
2022-09-23T09:07:38.204Z,16.40
2022-09-23T09:10:18.636Z,16.50
2022-09-23T09:13:00.075Z,16.60
2022-09-23T09:15:13.013Z,16.70
2022-09-23T09:17:28.225Z,16.80
2022-09-23T09:20:03.247Z,16.90
2022-09-23T09:22:12.114Z,17.00
2022-09-23T09:24:21.688Z,17.00
2022-09-23T09:26:33.386Z,17.00
2022-09-23T09:28:48.359Z,17.10
2022-09-23T09:31:11.607Z,17.10
2022-09-23T09:33:24.320Z,17.10
2022-09-23T09:35:41.965Z,17.20
2022-09-23T09:37:47.388Z,17.20
2022-09-23T09:39:49.421Z,17.30
2022-09-23T09:41:52.019Z,17.30
2022-09-23T09:43:57.620Z,17.40
2022-09-23T09:46:21.648Z,17.40
2022-09-23T09:48:37.665Z,17.50
2022-09-23T09:50:51.130Z,17.60
2022-09-23T09:53:25.400Z,17.70
2022-09-23T09:55:28.720Z,17.80
2022-09-23T09:57:38.424Z,17.90
2022-09-23T09:59:42.909Z,17.90
2022-09-23T10:01:47.240Z,18.00
2022-09-23T10:03:53.190Z,18.10
2022-09-23T10:05:59.636Z,18.10
2022-09-23T10:08:21.202Z,18.20
2022-09-23T10:10:33.714Z,18.30
2022-09-23T10:12:47.471Z,18.40
2022-09-23T10:14:51.762Z,18.40
2022-09-23T10:17:05.482Z,18.50
2022-09-23T10:19:28.144Z,18.60
2022-09-23T10:21:36.031Z,18.60
2022-09-23T10:23:43.405Z,18.60
2022-09-23T10:25:56.862Z,18.70
2022-09-23T10:27:58.534Z,18.70
2022-09-23T10:30:05.772Z,18.80
2022-09-23T10:32:27.760Z,18.80
2022-09-23T10:34:35.058Z,18.90
2022-09-23T10:36:38.343Z,19.00
2022-09-23T10:38:42.973Z,19.00
2022-09-23T10:41:03.308Z,19.10
2022-09-23T10:43:26.323Z,19.20
2022-09-23T10:45:52.739Z,19.30
2022-09-23T10:48:21.697Z,19.40
2022-09-23T10:50:38.158Z,19.40
2022-09-23T10:52:44.998Z,19.50
2022-09-23T10:54:55.388Z,19.50
2022-09-23T10:57:40.346Z,19.60
2022-09-23T10:59:57.383Z,19.70
2022-09-23T11:02:23.686Z,19.70
2022-09-23T11:04:54.710Z,19.80
2022-09-23T11:07:22.839Z,19.80
2022-09-23T11:09:58.795Z,19.90
2022-09-23T11:12:12.337Z,20.00
2022-09-23T11:14:38.751Z,20.10
2022-09-23T11:16:59.623Z,20.20
2022-09-23T11:19:15.010Z,20.30
2022-09-23T11:21:44.125Z,20.40
2022-09-23T11:24:15.751Z,20.40
2022-09-23T11:26:44.362Z,20.40
2022-09-23T11:29:08.152Z,20.50
2022-09-23T11:31:30.106Z,20.50
2022-09-23T11:34:11.768Z,20.50
2022-09-23T11:36:30.517Z,20.60
2022-09-23T11:38:42.619Z,20.70
2022-09-23T11:40:48.158Z,20.70
2022-09-23T11:43:20.364Z,20.80
2022-09-23T11:45:39.932Z,20.90
2022-09-23T11:47:51.306Z,21.00
2022-09-23T11:49:57.920Z,21.00
2022-09-23T11:52:19.544Z,21.00
2022-09-23T11:54:25.013Z,21.00
2022-09-23T11:56:35.975Z,21.10
2022-09-23T11:58:48.683Z,21.10
2022-09-23T12:01:34.808Z,21.10
2022-09-23T12:03:51.096Z,21.10
2022-09-23T12:06:28.710Z,21.10
2022-09-23T12:08:39.166Z,21.10
2022-09-23T12:11:16.062Z,21.20
2022-09-23T12:13:32.749Z,21.20
2022-09-23T12:15:58.181Z,21.20
2022-09-23T12:18:07.937Z,21.30
2022-09-23T12:20:31.178Z,21.30
2022-09-23T12:22:49.098Z,21.30
2022-09-23T12:25:27.839Z,21.30
2022-09-23T12:27:45.583Z,21.30
2022-09-23T12:29:51.323Z,21.20
2022-09-23T12:31:53.202Z,21.10
2022-09-23T12:33:59.267Z,21.10
2022-09-23T12:36:06.622Z,21.10
2022-09-23T12:38:26.291Z,21.10
2022-09-23T12:40:43.807Z,21.10
2022-09-23T12:42:46.998Z,21.10
2022-09-23T12:44:49.323Z,21.20
2022-09-23T12:47:14.001Z,21.20
2022-09-23T12:49:24.922Z,21.30
2022-09-23T12:51:35.555Z,21.30
2022-09-23T12:53:40.171Z,21.30
2022-09-23T12:55:46.920Z,21.30
2022-09-23T12:57:48.982Z,21.30
2022-09-23T13:00:12.648Z,21.30
2022-09-23T13:02:37.249Z,21.30
2022-09-23T13:05:00.711Z,21.40
2022-09-23T13:07:08.325Z,21.50
2022-09-23T13:09:22.292Z,21.50
2022-09-23T13:11:28.534Z,21.50
2022-09-23T13:13:41.187Z,21.50
2022-09-23T13:15:42.889Z,21.50
2022-09-23T13:17:44.533Z,21.50
2022-09-23T13:19:46.317Z,21.40
2022-09-23T13:21:49.422Z,21.50
2022-09-23T13:24:15.034Z,21.40
2022-09-23T13:26:16.838Z,21.40
2022-09-23T13:28:43.158Z,21.40
2022-09-23T13:30:51.922Z,21.30
2022-09-23T13:33:21.365Z,21.30
2022-09-23T13:35:38.118Z,21.20
2022-09-23T13:37:45.442Z,21.20
2022-09-23T13:39:47.303Z,21.10
2022-09-23T13:41:50.447Z,21.00
2022-09-23T13:43:53.809Z,21.00
2022-09-23T13:45:59.969Z,21.00
2022-09-23T13:48:08.461Z,20.90
2022-09-23T13:50:24.475Z,20.90
2022-09-23T13:52:31.372Z,20.90
2022-09-23T13:54:36.303Z,20.90
2022-09-23T13:56:50.018Z,20.80
2022-09-23T13:58:52.213Z,20.90
2022-09-23T14:00:57.817Z,20.90
2022-09-23T14:03:01.057Z,20.90
2022-09-23T14:05:12.442Z,20.90
2022-09-23T14:07:16.413Z,20.80
2022-09-23T14:09:20.110Z,20.80
2022-09-23T14:11:33.174Z,20.80
2022-09-23T14:13:44.126Z,20.80
2022-09-23T14:15:47.385Z,20.80
2022-09-23T14:17:57.821Z,20.70
2022-09-23T14:19:59.497Z,20.70
2022-09-23T14:22:01.243Z,20.70
2022-09-23T14:24:35.217Z,20.70
2022-09-23T14:26:42.622Z,20.70
2022-09-23T14:28:50.175Z,20.60
2022-09-23T14:30:56.426Z,20.60
2022-09-23T14:32:59.215Z,20.60
2022-09-23T14:35:04.361Z,20.60
2022-09-23T14:37:51.037Z,20.60
2022-09-23T14:39:57.626Z,20.60
2022-09-23T14:41:59.979Z,20.60
2022-09-23T14:44:02.933Z,20.60
2022-09-23T14:46:13.447Z,20.50
2022-09-23T14:48:26.617Z,20.50
2022-09-23T14:50:36.910Z,20.50
2022-09-23T14:52:51.430Z,20.40
2022-09-23T14:54:53.235Z,20.40
2022-09-23T14:56:55.189Z,20.40
2022-09-23T14:58:58.782Z,20.40
2022-09-23T15:01:01.415Z,20.40
2022-09-23T15:03:13.099Z,20.40
2022-09-23T15:05:21.086Z,20.40
2022-09-23T15:07:23.146Z,20.40
2022-09-23T15:09:39.548Z,20.40
2022-09-23T15:11:41.338Z,20.40
2022-09-23T15:13:46.282Z,20.40
2022-09-23T15:15:51.611Z,20.40
2022-09-23T15:17:53.382Z,20.30
2022-09-23T15:20:01.911Z,20.40
2022-09-23T15:22:07.300Z,20.40
2022-09-23T15:24:57.065Z,20.30
2022-09-23T15:27:01.281Z,20.40
2022-09-23T15:29:08.993Z,20.30
2022-09-23T15:31:18.910Z,20.30
2022-09-23T15:33:29.034Z,20.30
2022-09-23T15:35:32.108Z,20.20
2022-09-23T15:37:36.358Z,20.20
2022-09-23T15:39:38.350Z,20.20
2022-09-23T15:41:43.346Z,20.20
2022-09-23T15:43:46.697Z,20.10
2022-09-23T15:45:50.622Z,20.10
2022-09-23T15:47:52.385Z,20.10
2022-09-23T15:49:54.504Z,20.10
2022-09-23T15:52:04.444Z,20.10
2022-09-23T15:54:12.295Z,20.10
2022-09-23T15:56:17.399Z,20.10
2022-09-23T15:58:20.401Z,20.00
2022-09-23T16:00:22.135Z,20.00
2022-09-23T16:02:24.163Z,20.00
2022-09-23T16:04:26.050Z,20.00
2022-09-23T16:06:27.891Z,20.00
2022-09-23T16:08:32.520Z,20.00
2022-09-23T16:10:34.434Z,20.00
2022-09-23T16:12:38.527Z,19.90
2022-09-23T16:14:40.157Z,19.90
2022-09-23T16:16:44.802Z,19.90
2022-09-23T16:18:48.601Z,19.90
2022-09-23T16:20:50.921Z,19.90
2022-09-23T16:22:56.761Z,19.90
2022-09-23T16:24:59.943Z,20.00
2022-09-23T16:27:04.633Z,19.90
2022-09-23T16:29:06.281Z,19.90
2022-09-23T16:31:08.694Z,19.90
2022-09-23T16:33:10.397Z,19.90
2022-09-23T16:35:12.146Z,19.90
2022-09-23T16:37:17.953Z,19.90
2022-09-23T16:39:23.067Z,19.90
2022-09-23T16:41:26.360Z,19.90
2022-09-23T16:43:35.176Z,19.80
2022-09-23T16:45:38.213Z,19.80
2022-09-23T16:47:49.641Z,19.80
2022-09-23T16:49:51.293Z,19.80
2022-09-23T16:51:55.182Z,19.70
2022-09-23T16:53:59.581Z,19.70
2022-09-23T16:56:07.879Z,19.70
2022-09-23T16:58:19.391Z,19.60
2022-09-23T17:00:39.966Z,19.60
2022-09-23T17:03:02.411Z,19.50
2022-09-23T17:05:04.925Z,19.50
2022-09-23T17:07:06.678Z,19.50
2022-09-23T17:09:08.557Z,19.40
2022-09-23T17:11:16.245Z,19.40
2022-09-23T17:13:17.896Z,19.40
2022-09-23T17:15:19.872Z,19.30
2022-09-23T17:17:22.205Z,19.30
2022-09-23T17:19:23.898Z,19.20
2022-09-23T17:21:27.114Z,19.20
2022-09-23T17:23:32.587Z,19.20
2022-09-23T17:25:35.619Z,19.10
2022-09-23T17:27:37.692Z,19.10
2022-09-23T17:29:39.392Z,19.10
2022-09-23T17:31:41.045Z,19.10
2022-09-23T17:33:43.106Z,19.00
2022-09-23T17:35:44.765Z,18.90
2022-09-23T17:37:52.931Z,19.00
2022-09-23T17:39:54.551Z,18.90
2022-09-23T17:41:58.309Z,18.90
2022-09-23T17:44:00.595Z,18.80
2022-09-23T17:46:06.381Z,18.80
2022-09-23T17:48:10.346Z,18.80
2022-09-23T17:50:14.826Z,18.80
2022-09-23T17:52:18.118Z,18.70
2022-09-23T17:54:23.829Z,18.70
2022-09-23T17:56:26.764Z,18.60
2022-09-23T17:58:32.730Z,18.60
2022-09-23T18:00:36.946Z,18.60
2022-09-23T18:02:38.755Z,18.60
2022-09-23T18:04:40.446Z,18.60
2022-09-23T18:06:42.088Z,18.50
2022-09-23T18:08:46.624Z,18.50
2022-09-23T18:10:48.354Z,18.50
2022-09-23T18:12:50.123Z,18.40
2022-09-23T18:14:51.788Z,18.40
2022-09-23T18:16:56.767Z,18.40
2022-09-23T18:19:00.674Z,18.30
2022-09-23T18:21:05.658Z,18.30
2022-09-23T18:23:07.319Z,18.30
2022-09-23T18:25:35.212Z,18.30
2022-09-23T18:27:34.554Z,18.20
2022-09-23T18:29:36.215Z,18.30
2022-09-23T18:31:41.745Z,18.20
2022-09-23T18:33:43.410Z,18.20
2022-09-23T18:35:45.178Z,18.10
2022-09-23T18:37:47.183Z,18.10
2022-09-23T18:39:49.832Z,18.10
2022-09-23T18:41:51.567Z,18.10
2022-09-23T18:43:55.745Z,18.00
2022-09-23T18:46:00.348Z,18.00
2022-09-23T18:48:21.078Z,18.00
2022-09-23T18:50:43.048Z,17.90
2022-09-23T18:52:47.109Z,17.90
2022-09-23T18:54:53.006Z,17.90
2022-09-23T18:56:59.035Z,17.80
2022-09-23T18:59:00.883Z,17.80
2022-09-23T19:01:08.043Z,17.80
2022-09-23T19:03:10.902Z,17.80
2022-09-23T19:05:12.906Z,17.70
2022-09-23T19:07:15.867Z,17.70
2022-09-23T19:09:22.171Z,17.70
2022-09-23T19:11:24.500Z,17.60
2022-09-23T19:13:26.525Z,17.60
2022-09-23T19:15:28.215Z,17.60
2022-09-23T19:17:29.850Z,17.50
2022-09-23T19:19:31.703Z,17.50
2022-09-23T19:21:36.922Z,17.40
2022-09-23T19:23:40.618Z,17.40
2022-09-23T19:25:47.913Z,17.40
2022-09-23T19:27:50.114Z,17.40
2022-09-23T19:29:53.550Z,17.30
2022-09-23T19:31:55.970Z,17.30
2022-09-23T19:33:59.907Z,17.30
2022-09-23T19:36:02.210Z,17.20
2022-09-23T19:38:09.865Z,17.20
2022-09-23T19:40:11.963Z,17.20
2022-09-23T19:42:13.914Z,17.20
2022-09-23T19:44:16.426Z,17.10
2022-09-23T19:46:18.100Z,17.10
2022-09-23T19:48:21.054Z,17.10
2022-09-23T19:50:22.792Z,17.00
2022-09-23T19:52:26.988Z,17.00
2022-09-23T19:54:28.717Z,17.00
2022-09-23T19:56:34.014Z,16.90
2022-09-23T19:58:35.721Z,16.90
2022-09-23T20:00:39.510Z,16.90
2022-09-23T20:02:42.309Z,16.80
2022-09-23T20:04:45.156Z,16.80
2022-09-23T20:06:49.996Z,16.80
2022-09-23T20:08:51.619Z,16.80
2022-09-23T20:10:53.466Z,16.80
2022-09-23T20:12:58.417Z,16.70
2022-09-23T20:15:00.641Z,16.70
2022-09-23T20:17:02.340Z,16.70
2022-09-23T20:19:05.455Z,16.70
2022-09-23T20:21:11.853Z,16.60
2022-09-23T20:23:15.849Z,16.70
2022-09-23T20:25:17.689Z,16.60
2022-09-23T20:27:19.457Z,16.60
2022-09-23T20:29:21.184Z,16.60
2022-09-23T20:31:26.307Z,16.60
2022-09-23T20:33:28.358Z,16.50
2022-09-23T20:35:33.119Z,16.50
2022-09-23T20:37:34.791Z,16.50
2022-09-23T20:39:36.813Z,16.50
2022-09-23T20:41:40.281Z,16.40
2022-09-23T20:43:41.938Z,16.50
2022-09-23T20:45:50.142Z,16.40
2022-09-23T20:47:51.767Z,16.40
2022-09-23T20:49:53.681Z,16.40
2022-09-23T20:51:55.349Z,16.40
2022-09-23T20:53:56.982Z,16.40
2022-09-23T20:56:01.989Z,16.30
2022-09-23T20:58:06.286Z,16.30
2022-09-23T21:00:08.676Z,16.30
2022-09-23T21:02:12.156Z,16.30
2022-09-23T21:04:13.839Z,16.30
2022-09-23T21:06:17.251Z,16.20
2022-09-23T21:08:18.887Z,16.20
2022-09-23T21:10:22.599Z,16.20
2022-09-23T21:12:24.329Z,16.20
2022-09-23T21:14:26.130Z,16.20
2022-09-23T21:16:29.654Z,16.10
2022-09-23T21:18:37.095Z,16.10
2022-09-23T21:20:38.761Z,16.10
2022-09-23T21:22:40.448Z,16.00
2022-09-23T21:27:04.454Z,16.00
2022-09-23T21:29:06.689Z,15.90
2022-09-23T21:31:11.347Z,15.90
2022-09-23T21:33:18.181Z,15.90
2022-09-23T21:35:22.368Z,15.90
2022-09-23T21:37:25.355Z,15.80
2022-09-23T21:39:26.961Z,15.80
2022-09-23T21:41:31.032Z,15.80
2022-09-23T21:43:35.000Z,15.70
2022-09-23T21:45:36.690Z,15.70
2022-09-23T21:47:39.734Z,15.70
2022-09-23T21:49:48.478Z,15.70
2022-09-23T21:51:59.438Z,15.70
2022-09-23T21:54:06.167Z,15.60
2022-09-23T21:56:20.979Z,15.60
2022-09-23T21:58:22.917Z,15.60
2022-09-23T22:00:27.333Z,15.60
2022-09-23T22:02:29.017Z,15.50
2022-09-23T22:04:34.195Z,15.50
2022-09-23T22:06:38.024Z,15.50
2022-09-23T22:08:43.993Z,15.50
2022-09-23T22:10:45.658Z,15.50
2022-09-23T22:12:51.655Z,15.40
2022-09-23T22:14:53.298Z,15.40
2022-09-23T22:16:57.173Z,15.40
2022-09-23T22:19:01.072Z,15.40
2022-09-23T22:21:02.775Z,15.40
2022-09-23T22:23:04.437Z,15.40
2022-09-23T22:25:06.522Z,15.30
2022-09-23T22:27:09.546Z,15.40
2022-09-23T22:29:32.402Z,15.30
2022-09-23T22:31:52.893Z,15.30
2022-09-23T22:33:54.709Z,15.30
2022-09-23T22:36:03.748Z,15.30
2022-09-23T22:38:05.605Z,15.30
2022-09-23T22:40:15.464Z,15.30
2022-09-23T22:42:17.196Z,15.30
2022-09-23T22:44:20.144Z,15.30
2022-09-23T22:46:22.595Z,15.30
2022-09-23T22:48:26.859Z,15.30
2022-09-23T22:50:29.161Z,15.30
2022-09-23T22:52:32.090Z,15.30
2022-09-23T22:54:34.550Z,15.30
2022-09-23T22:56:37.774Z,15.30
2022-09-23T22:58:41.768Z,15.30
2022-09-23T23:00:45.590Z,15.30
2022-09-23T23:02:47.344Z,15.30
2022-09-23T23:04:49.962Z,15.30
2022-09-23T23:06:51.998Z,15.30
2022-09-23T23:08:59.433Z,15.30
2022-09-23T23:11:10.022Z,15.20
2022-09-23T23:13:11.761Z,15.20
2022-09-23T23:15:14.935Z,15.20
2022-09-23T23:17:18.533Z,15.20
2022-09-23T23:19:20.346Z,15.20
2022-09-23T23:21:22.617Z,15.20
2022-09-23T23:23:24.270Z,15.20
2022-09-23T23:25:25.925Z,15.20
2022-09-23T23:27:27.607Z,15.10
2022-09-23T23:29:31.560Z,15.10
2022-09-23T23:31:33.551Z,15.10
2022-09-23T23:33:35.693Z,15.10
2022-09-23T23:35:37.350Z,15.00
2022-09-23T23:37:40.348Z,15.00
2022-09-23T23:39:44.603Z,15.00
2022-09-23T23:41:46.678Z,14.90
2022-09-23T23:43:56.572Z,14.90
2022-09-23T23:46:00.223Z,14.90
2022-09-23T23:48:02.145Z,14.90
2022-09-23T23:50:06.300Z,14.80
2022-09-23T23:52:08.911Z,14.80
2022-09-23T23:54:12.239Z,14.80
2022-09-23T23:56:17.274Z,14.70
2022-09-23T23:58:21.524Z,14.70
